sensor_id;sensor_type;location;lat;lon;timestamp;pressure;altitude;pressure_sealevel;temperature;humidity
12636;BME280;6383;50.830;7.210;2023-02-04T00:00:31;102296.19;;;10.25;71.27
12636;BME280;6383;50.830;7.210;2023-02-04T00:03:04;102312.81;;;10.23;71.44
12636;BME280;6383;50.830;7.210;2023-02-04T00:05:33;102314.69;;;10.23;71.30
12636;BME280;6383;50.830;7.210;2023-02-04T00:08:02;102311.16;;;10.22;71.14
12636;BME280;6383;50.830;7.210;2023-02-04T00:10:31;102316.59;;;10.22;70.76
12636;BME280;6383;50.830;7.210;2023-02-04T00:12:59;102316.03;;;10.20;70.65
12636;BME280;6383;50.830;7.210;2023-02-04T00:15:29;102325.84;;;10.21;71.09
12636;BME280;6383;50.830;7.210;2023-02-04T00:17:59;102327.47;;;10.22;70.83
12636;BME280;6383;50.830;7.210;2023-02-04T00:20:28;102336.72;;;10.21;70.64
12636;BME280;6383;50.830;7.210;2023-02-04T00:22:55;102336.72;;;10.21;71.01
12636;BME280;6383;50.830;7.210;2023-02-04T00:25:24;102329.63;;;10.20;70.62
12636;BME280;6383;50.830;7.210;2023-02-04T00:27:54;102329.63;;;10.20;70.67
12636;BME280;6383;50.830;7.210;2023-02-04T00:30:23;102330.94;;;10.18;70.37
12636;BME280;6383;50.830;7.210;2023-02-04T00:32:50;102339.94;;;10.18;70.76
12636;BME280;6383;50.830;7.210;2023-02-04T00:35:21;102337.22;;;10.18;71.13
12636;BME280;6383;50.830;7.210;2023-02-04T00:37:50;102350.81;;;10.18;71.12
12636;BME280;6383;50.830;7.210;2023-02-04T00:40:19;102342.88;;;10.17;70.51
12636;BME280;6383;50.830;7.210;2023-02-04T00:42:48;102342.06;;;10.16;70.81
12636;BME280;6383;50.830;7.210;2023-02-04T00:45:17;102343.13;;;10.15;70.27
12636;BME280;6383;50.830;7.210;2023-02-04T00:47:46;102337.94;;;10.14;70.49
12636;BME280;6383;50.830;7.210;2023-02-04T00:50:16;102355.09;;;10.14;70.47
12636;BME280;6383;50.830;7.210;2023-02-04T00:52:45;102351.56;;;10.14;70.32
12636;BME280;6383;50.830;7.210;2023-02-04T00:55:14;102344.47;;;10.13;70.13
12636;BME280;6383;50.830;7.210;2023-02-04T00:57:45;102356.16;;;10.13;70.90
12636;BME280;6383;50.830;7.210;2023-02-04T01:00:14;102357.00;;;10.14;70.63
12636;BME280;6383;50.830;7.210;2023-02-04T01:02:43;102358.31;;;10.11;70.41
12636;BME280;6383;50.830;7.210;2023-02-04T01:05:12;102369.44;;;10.10;70.67
12636;BME280;6383;50.830;7.210;2023-02-04T01:07:41;102366.47;;;10.11;70.45
12636;BME280;6383;50.830;7.210;2023-02-04T01:10:09;102367.56;;;10.10;70.13
12636;BME280;6383;50.830;7.210;2023-02-04T01:12:39;102376.00;;;10.09;70.54
12636;BME280;6383;50.830;7.210;2023-02-04T01:15:07;102364.00;;;10.10;69.78
12636;BME280;6383;50.830;7.210;2023-02-04T01:17:36;102377.59;;;10.10;70.25
12636;BME280;6383;50.830;7.210;2023-02-04T01:20:06;102370.56;;;10.09;69.76
12636;BME280;6383;50.830;7.210;2023-02-04T01:22:34;102374.34;;;10.08;70.05
12636;BME280;6383;50.830;7.210;2023-02-04T01:25:02;102370.22;;;10.05;69.81
12636;BME280;6383;50.830;7.210;2023-02-04T01:27:31;102363.97;;;10.05;69.61
12636;BME280;6383;50.830;7.210;2023-02-04T01:30:00;102377.81;;;10.03;69.65
12636;BME280;6383;50.830;7.210;2023-02-04T01:32:28;102383.25;;;10.03;69.73
12636;BME280;6383;50.830;7.210;2023-02-04T01:34:56;102391.66;;;10.02;69.86
12636;BME280;6383;50.830;7.210;2023-02-04T01:37:23;102387.03;;;10.02;69.89
12636;BME280;6383;50.830;7.210;2023-02-04T01:39:53;102397.94;;;10.02;70.15
12636;BME280;6383;50.830;7.210;2023-02-04T01:42:22;102397.59;;;9.99;69.65
12636;BME280;6383;50.830;7.210;2023-02-04T01:44:51;102418.53;;;9.98;69.48
12636;BME280;6383;50.830;7.210;2023-02-04T01:47:21;102410.38;;;9.98;69.74
12636;BME280;6383;50.830;7.210;2023-02-04T01:49:53;102399.75;;;9.97;69.11
12636;BME280;6383;50.830;7.210;2023-02-04T01:52:22;102401.38;;;9.98;69.85
12636;BME280;6383;50.830;7.210;2023-02-04T01:54:52;102419.34;;;9.99;69.50
12636;BME280;6383;50.830;7.210;2023-02-04T01:57:21;102424.56;;;10.00;69.56
12636;BME280;6383;50.830;7.210;2023-02-04T01:59:54;102418.28;;;10.00;69.97
12636;BME280;6383;50.830;7.210;2023-02-04T02:02:44;102408.81;;;10.02;69.82
12636;BME280;6383;50.830;7.210;2023-02-04T02:05:15;102416.72;;;10.04;69.61
12636;BME280;6383;50.830;7.210;2023-02-04T02:07:44;102420.00;;;10.06;69.88
12636;BME280;6383;50.830;7.210;2023-02-04T02:10:14;102419.75;;;10.07;69.76
12636;BME280;6383;50.830;7.210;2023-02-04T02:12:43;102430.66;;;10.07;69.46
12636;BME280;6383;50.830;7.210;2023-02-04T02:15:12;102419.75;;;10.07;69.78
12636;BME280;6383;50.830;7.210;2023-02-04T02:17:43;102425.22;;;10.07;69.86
12636;BME280;6383;50.830;7.210;2023-02-04T02:20:15;102426.03;;;10.08;69.46
12636;BME280;6383;50.830;7.210;2023-02-04T02:22:51;102436.09;;;10.07;69.32
12636;BME280;6383;50.830;7.210;2023-02-04T02:25:22;102435.28;;;10.07;69.63
12636;BME280;6383;50.830;7.210;2023-02-04T02:27:52;102431.72;;;10.06;69.80
12636;BME280;6383;50.830;7.210;2023-02-04T02:30:22;102431.72;;;10.06;69.75
12636;BME280;6383;50.830;7.210;2023-02-04T02:32:51;102439.31;;;10.04;69.29
12636;BME280;6383;50.830;7.210;2023-02-04T02:35:20;102431.41;;;10.03;69.46
12636;BME280;6383;50.830;7.210;2023-02-04T02:37:48;102434.13;;;10.03;69.37
12636;BME280;6383;50.830;7.210;2023-02-04T02:40:18;102441.44;;;10.02;69.30
12636;BME280;6383;50.830;7.210;2023-02-04T02:42:48;102434.34;;;10.01;69.66
12636;BME280;6383;50.830;7.210;2023-02-04T02:45:34;102439.81;;;10.01;70.11
12636;BME280;6383;50.830;7.210;2023-02-04T02:48:01;102442.78;;;10.00;69.86
12636;BME280;6383;50.830;7.210;2023-02-04T02:50:30;102445.75;;;9.98;69.77
12636;BME280;6383;50.830;7.210;2023-02-04T02:52:58;102444.66;;;9.99;69.84
12636;BME280;6383;50.830;7.210;2023-02-04T02:55:27;102449.53;;;9.97;70.13
12636;BME280;6383;50.830;7.210;2023-02-04T02:57:57;102461.47;;;9.96;70.33
12636;BME280;6383;50.830;7.210;2023-02-04T03:00:28;102459.59;;;9.97;70.03
12636;BME280;6383;50.830;7.210;2023-02-04T03:03:02;102459.34;;;9.98;70.11
12636;BME280;6383;50.830;7.210;2023-02-04T03:05:35;102464.78;;;9.98;70.46
12636;BME280;6383;50.830;7.210;2023-02-04T03:08:07;102466.66;;;9.98;70.54
12636;BME280;6383;50.830;7.210;2023-02-04T03:10:36;102465.59;;;9.99;70.47
12636;BME280;6383;50.830;7.210;2023-02-04T03:13:05;102467.00;;;10.01;70.68
12636;BME280;6383;50.830;7.210;2023-02-04T03:15:33;102469.97;;;10.00;70.90
12636;BME280;6383;50.830;7.210;2023-02-04T03:18:02;102469.16;;;9.99;71.23
12636;BME280;6383;50.830;7.210;2023-02-04T03:20:31;102461.22;;;9.98;71.15
12636;BME280;6383;50.830;7.210;2023-02-04T03:22:59;102467.50;;;9.98;72.01
12636;BME280;6383;50.830;7.210;2023-02-04T03:25:28;102475.66;;;9.98;71.29
12636;BME280;6383;50.830;7.210;2023-02-04T03:27:57;102477.56;;;9.98;72.14
12636;BME280;6383;50.830;7.210;2023-02-04T03:30:27;102483.81;;;9.98;71.84
12636;BME280;6383;50.830;7.210;2023-02-04T03:32:57;102490.91;;;9.99;72.47
12636;BME280;6383;50.830;7.210;2023-02-04T03:35:26;102490.09;;;9.99;72.54
12636;BME280;6383;50.830;7.210;2023-02-04T03:37:54;102491.16;;;9.98;72.53
12636;BME280;6383;50.830;7.210;2023-02-04T03:40:21;102496.84;;;9.96;72.62
12636;BME280;6383;50.830;7.210;2023-02-04T03:42:48;102491.41;;;9.96;72.57
12636;BME280;6383;50.830;7.210;2023-02-04T03:45:16;102488.13;;;9.94;72.75
12636;BME280;6383;50.830;7.210;2023-02-04T03:47:45;102495.47;;;9.94;72.87
12636;BME280;6383;50.830;7.210;2023-02-04T03:50:14;102500.09;;;9.93;72.76
12636;BME280;6383;50.830;7.210;2023-02-04T03:52:42;102506.59;;;9.92;73.03
12636;BME280;6383;50.830;7.210;2023-02-04T03:55:11;102504.34;;;9.89;73.00
12636;BME280;6383;50.830;7.210;2023-02-04T03:57:40;102504.59;;;9.87;72.85
12636;BME280;6383;50.830;7.210;2023-02-04T04:00:09;102503.78;;;9.87;73.46
12636;BME280;6383;50.830;7.210;2023-02-04T04:02:46;102503.19;;;9.85;73.09
12636;BME280;6383;50.830;7.210;2023-02-04T04:05:15;102515.16;;;9.84;73.17
12636;BME280;6383;50.830;7.210;2023-02-04T04:07:43;102504.50;;;9.82;73.17
12636;BME280;6383;50.830;7.210;2023-02-04T04:10:11;102503.69;;;9.82;73.14
12636;BME280;6383;50.830;7.210;2023-02-04T04:12:38;102509.38;;;9.80;73.39
12636;BME280;6383;50.830;7.210;2023-02-04T04:15:06;102502.56;;;9.78;73.59
12636;BME280;6383;50.830;7.210;2023-02-04T04:17:34;102511.19;;;9.75;73.36
12636;BME280;6383;50.830;7.210;2023-02-04T04:20:03;102507.91;;;9.73;73.64
12636;BME280;6383;50.830;7.210;2023-02-04T04:22:33;102519.59;;;9.73;73.43
12636;BME280;6383;50.830;7.210;2023-02-04T04:25:00;102513.59;;;9.71;73.39
12636;BME280;6383;50.830;7.210;2023-02-04T04:27:28;102513.34;;;9.73;73.41
12636;BME280;6383;50.830;7.210;2023-02-04T04:29:57;102514.16;;;9.73;74.15
12636;BME280;6383;50.830;7.210;2023-02-04T04:32:25;102522.56;;;9.72;74.33
12636;BME280;6383;50.830;7.210;2023-02-04T04:34:54;102511.94;;;9.70;73.89
12636;BME280;6383;50.830;7.210;2023-02-04T04:37:24;102514.91;;;9.69;73.91
12636;BME280;6383;50.830;7.210;2023-02-04T04:39:52;102515.97;;;9.68;74.22
12636;BME280;6383;50.830;7.210;2023-02-04T04:42:21;102524.13;;;9.68;74.48
12636;BME280;6383;50.830;7.210;2023-02-04T04:44:50;102521.88;;;9.65;74.66
12636;BME280;6383;50.830;7.210;2023-02-04T04:47:19;102525.19;;;9.67;74.68
12636;BME280;6383;50.830;7.210;2023-02-04T04:49:47;102531.44;;;9.67;74.50
12636;BME280;6383;50.830;7.210;2023-02-04T04:52:16;102536.91;;;9.67;74.83
12636;BME280;6383;50.830;7.210;2023-02-04T04:54:45;102549.19;;;9.70;74.64
12636;BME280;6383;50.830;7.210;2023-02-04T04:57:14;102548.59;;;9.68;74.56
12636;BME280;6383;50.830;7.210;2023-02-04T04:59:43;102546.13;;;9.66;75.16
12636;BME280;6383;50.830;7.210;2023-02-04T05:02:13;102559.94;;;9.65;74.96
12636;BME280;6383;50.830;7.210;2023-02-04T05:04:41;102547.69;;;9.62;75.03
12636;BME280;6383;50.830;7.210;2023-02-04T05:07:09;102555.03;;;9.62;75.03
12636;BME280;6383;50.830;7.210;2023-02-04T05:09:38;102551.72;;;9.60;75.18
12636;BME280;6383;50.830;7.210;2023-02-04T05:12:08;102555.28;;;9.60;75.14
12636;BME280;6383;50.830;7.210;2023-02-04T05:14:37;102559.88;;;9.60;75.62
12636;BME280;6383;50.830;7.210;2023-02-04T05:17:06;102559.88;;;9.60;74.75
12636;BME280;6383;50.830;7.210;2023-02-04T05:19:34;102558.22;;;9.59;75.37
12636;BME280;6383;50.830;7.210;2023-02-04T05:22:03;102567.22;;;9.59;75.37
12636;BME280;6383;50.830;7.210;2023-02-04T05:24:32;102566.38;;;9.59;75.29
12636;BME280;6383;50.830;7.210;2023-02-04T05:27:00;102563.66;;;9.59;75.81
12636;BME280;6383;50.830;7.210;2023-02-04T05:29:28;102557.41;;;9.58;75.79
12636;BME280;6383;50.830;7.210;2023-02-04T05:31:58;102559.31;;;9.58;75.89
12636;BME280;6383;50.830;7.210;2023-02-04T05:34:27;102554.69;;;9.58;75.75
12636;BME280;6383;50.830;7.210;2023-02-04T05:36:56;102565.56;;;9.58;75.78
12636;BME280;6383;50.830;7.210;2023-02-04T05:39:25;102572.88;;;9.58;75.35
12636;BME280;6383;50.830;7.210;2023-02-04T05:41:53;102572.31;;;9.55;75.79
12636;BME280;6383;50.830;7.210;2023-02-04T05:44:22;102574.19;;;9.55;75.69
12636;BME280;6383;50.830;7.210;2023-02-04T05:46:53;102579.63;;;9.55;75.60
12636;BME280;6383;50.830;7.210;2023-02-04T05:49:22;102582.13;;;9.57;76.19
12636;BME280;6383;50.830;7.210;2023-02-04T05:51:50;102581.28;;;9.56;76.05
12636;BME280;6383;50.830;7.210;2023-02-04T05:54:18;102584.84;;;9.57;76.04
12636;BME280;6383;50.830;7.210;2023-02-04T05:56:45;102587.78;;;9.55;76.45
12636;BME280;6383;50.830;7.210;2023-02-04T05:59:13;102581.53;;;9.54;76.46
12636;BME280;6383;50.830;7.210;2023-02-04T06:01:42;102588.63;;;9.55;76.74
12636;BME280;6383;50.830;7.210;2023-02-04T06:04:12;102593.22;;;9.55;76.18
12636;BME280;6383;50.830;7.210;2023-02-04T06:06:42;102602.44;;;9.54;76.67
12636;BME280;6383;50.830;7.210;2023-02-04T06:09:11;102592.06;;;9.51;76.29
12636;BME280;6383;50.830;7.210;2023-02-04T06:11:39;102602.09;;;9.50;76.70
12636;BME280;6383;50.830;7.210;2023-02-04T06:14:08;102603.19;;;9.49;76.55
12636;BME280;6383;50.830;7.210;2023-02-04T06:16:37;102609.69;;;9.48;76.94
12636;BME280;6383;50.830;7.210;2023-02-04T06:19:06;102615.63;;;9.45;76.50
12636;BME280;6383;50.830;7.210;2023-02-04T06:21:35;102621.06;;;9.45;76.29
12636;BME280;6383;50.830;7.210;2023-02-04T06:24:05;102622.13;;;9.44;76.52
12636;BME280;6383;50.830;7.210;2023-02-04T06:26:32;102618.56;;;9.44;76.89
12636;BME280;6383;50.830;7.210;2023-02-04T06:29:01;102624.00;;;9.44;77.02
12636;BME280;6383;50.830;7.210;2023-02-04T06:31:28;102623.41;;;9.42;77.14
12636;BME280;6383;50.830;7.210;2023-02-04T06:33:57;102631.81;;;9.40;77.31
12636;BME280;6383;50.830;7.210;2023-02-04T06:36:24;102622.84;;;9.40;77.22
12636;BME280;6383;50.830;7.210;2023-02-04T06:38:53;102635.13;;;9.42;76.97
12636;BME280;6383;50.830;7.210;2023-02-04T06:41:22;102635.13;;;9.42;76.75
12636;BME280;6383;50.830;7.210;2023-02-04T06:43:49;102632.06;;;9.39;77.06
12636;BME280;6383;50.830;7.210;2023-02-04T06:46:18;102633.94;;;9.38;76.62
12636;BME280;6383;50.830;7.210;2023-02-04T06:48:45;102640.44;;;9.37;77.62
12636;BME280;6383;50.830;7.210;2023-02-04T06:51:13;102644.81;;;9.38;78.04
12636;BME280;6383;50.830;7.210;2023-02-04T06:53:41;102650.25;;;9.38;77.35
12636;BME280;6383;50.830;7.210;2023-02-04T06:56:12;102649.19;;;9.39;77.09
12636;BME280;6383;50.830;7.210;2023-02-04T06:58:40;102647.75;;;9.37;77.44
12636;BME280;6383;50.830;7.210;2023-02-04T07:01:09;102659.47;;;9.37;77.79
12636;BME280;6383;50.830;7.210;2023-02-04T07:03:38;102653.78;;;9.39;77.28
12636;BME280;6383;50.830;7.210;2023-02-04T07:06:06;102652.50;;;9.41;77.71
12636;BME280;6383;50.830;7.210;2023-02-04T07:08:35;102659.56;;;9.42;77.48
12636;BME280;6383;50.830;7.210;2023-02-04T07:11:04;102665.00;;;9.42;78.02
12636;BME280;6383;50.830;7.210;2023-02-04T07:13:35;102656.63;;;9.44;77.58
12636;BME280;6383;50.830;7.210;2023-02-04T07:16:02;102661.00;;;9.45;77.31
12636;BME280;6383;50.830;7.210;2023-02-04T07:18:33;102659.94;;;9.46;77.58
12636;BME280;6383;50.830;7.210;2023-02-04T07:21:02;102666.19;;;9.46;77.83
12636;BME280;6383;50.830;7.210;2023-02-04T07:23:31;102672.69;;;9.45;77.64
12636;BME280;6383;50.830;7.210;2023-02-04T07:25:58;102674.34;;;9.46;77.98
12636;BME280;6383;50.830;7.210;2023-02-04T07:28:27;102677.06;;;9.46;77.72
12636;BME280;6383;50.830;7.210;2023-02-04T07:30:59;102687.69;;;9.48;78.28
12636;BME280;6383;50.830;7.210;2023-02-04T07:33:29;102683.09;;;9.48;77.66
12636;BME280;6383;50.830;7.210;2023-02-04T07:35:58;102686.63;;;9.49;77.83
12636;BME280;6383;50.830;7.210;2023-02-04T07:38:27;102688.25;;;9.50;77.72
12636;BME280;6383;50.830;7.210;2023-02-04T07:40:56;102689.91;;;9.51;77.57
12636;BME280;6383;50.830;7.210;2023-02-04T07:43:23;102689.91;;;9.51;77.19
12636;BME280;6383;50.830;7.210;2023-02-04T07:45:51;102690.72;;;9.51;77.51
12636;BME280;6383;50.830;7.210;2023-02-04T07:48:20;102688.00;;;9.51;77.39
12636;BME280;6383;50.830;7.210;2023-02-04T07:50:47;102694.03;;;9.53;78.02
12636;BME280;6383;50.830;7.210;2023-02-04T07:53:15;102698.41;;;9.54;77.72
12636;BME280;6383;50.830;7.210;2023-02-04T07:55:42;102701.72;;;9.57;78.18
12636;BME280;6383;50.830;7.210;2023-02-04T07:58:10;102705.50;;;9.55;77.75
12636;BME280;6383;50.830;7.210;2023-02-04T08:00:39;102709.06;;;9.56;77.94
12636;BME280;6383;50.830;7.210;2023-02-04T08:03:07;102710.94;;;9.55;78.23
12636;BME280;6383;50.830;7.210;2023-02-04T08:05:38;102711.78;;;9.56;77.78
12636;BME280;6383;50.830;7.210;2023-02-04T08:08:07;102716.38;;;9.55;78.21
12636;BME280;6383;50.830;7.210;2023-02-04T08:10:35;102710.69;;;9.57;77.93
12636;BME280;6383;50.830;7.210;2023-02-04T08:13:02;102717.78;;;9.58;78.32
12636;BME280;6383;50.830;7.210;2023-02-04T08:15:30;102720.28;;;9.60;77.87
12636;BME280;6383;50.830;7.210;2023-02-04T08:17:58;102724.66;;;9.61;77.87
12636;BME280;6383;50.830;7.210;2023-02-04T08:20:27;102721.94;;;9.61;78.11
12636;BME280;6383;50.830;7.210;2023-02-04T08:22:56;102726.31;;;9.62;78.42
12636;BME280;6383;50.830;7.210;2023-02-04T08:25:25;102730.69;;;9.63;78.45
12636;BME280;6383;50.830;7.210;2023-02-04T08:27:55;102724.72;;;9.66;78.75
12636;BME280;6383;50.830;7.210;2023-02-04T08:30:25;102714.69;;;9.66;78.39
12636;BME280;6383;50.830;7.210;2023-02-04T08:32:54;102727.22;;;9.67;78.44
12636;BME280;6383;50.830;7.210;2023-02-04T08:35:21;102727.81;;;9.69;78.58
12636;BME280;6383;50.830;7.210;2023-02-04T08:37:50;102722.94;;;9.71;78.75
12636;BME280;6383;50.830;7.210;2023-02-04T08:40:19;102728.16;;;9.73;78.65
12636;BME280;6383;50.830;7.210;2023-02-04T08:42:48;102738.78;;;9.74;78.20
12636;BME280;6383;50.830;7.210;2023-02-04T08:45:17;102734.19;;;9.75;78.17
12636;BME280;6383;50.830;7.210;2023-02-04T08:47:46;102733.13;;;9.76;78.51
12636;BME280;6383;50.830;7.210;2023-02-04T08:50:15;102746.47;;;9.77;78.48
12636;BME280;6383;50.830;7.210;2023-02-04T08:52:44;102742.69;;;9.78;78.99
12636;BME280;6383;50.830;7.210;2023-02-04T08:55:12;102747.63;;;9.81;78.32
12636;BME280;6383;50.830;7.210;2023-02-04T08:57:43;102752.81;;;9.83;77.96
12636;BME280;6383;50.830;7.210;2023-02-04T09:00:13;102760.75;;;9.84;78.27
12636;BME280;6383;50.830;7.210;2023-02-04T09:02:42;102765.34;;;9.84;78.38
12636;BME280;6383;50.830;7.210;2023-02-04T09:05:10;102768.91;;;9.84;78.73
12636;BME280;6383;50.830;7.210;2023-02-04T09:07:39;102760.50;;;9.86;78.47
12636;BME280;6383;50.830;7.210;2023-02-04T09:10:07;102771.97;;;9.88;78.54
12636;BME280;6383;50.830;7.210;2023-02-04T09:12:36;102777.16;;;9.89;78.24
12636;BME280;6383;50.830;7.210;2023-02-04T09:15:06;102774.22;;;9.91;77.96
12636;BME280;6383;50.830;7.210;2023-02-04T09:17:35;102781.53;;;9.90;77.81
12636;BME280;6383;50.830;7.210;2023-02-04T09:20:05;102782.59;;;9.89;77.79
12636;BME280;6383;50.830;7.210;2023-02-04T09:22:32;102780.38;;;9.86;77.72
12636;BME280;6383;50.830;7.210;2023-02-04T09:25:03;102779.31;;;9.87;77.87
12636;BME280;6383;50.830;7.210;2023-02-04T09:27:31;102783.69;;;9.88;77.96
12636;BME280;6383;50.830;7.210;2023-02-04T09:29:59;102791.59;;;9.90;78.28
12636;BME280;6383;50.830;7.210;2023-02-04T09:32:29;102800.34;;;9.92;78.11
12636;BME280;6383;50.830;7.210;2023-02-04T09:34:58;102799.84;;;9.95;78.21
12636;BME280;6383;50.830;7.210;2023-02-04T09:37:27;102796.88;;;9.97;78.22
12636;BME280;6383;50.830;7.210;2023-02-04T09:39:54;102799.38;;;9.98;78.06
12636;BME280;6383;50.830;7.210;2023-02-04T09:42:24;102794.28;;;10.02;77.90
12636;BME280;6383;50.830;7.210;2023-02-04T09:44:53;102803.25;;;10.02;77.94
12636;BME280;6383;50.830;7.210;2023-02-04T09:47:23;102799.22;;;10.05;77.84
12636;BME280;6383;50.830;7.210;2023-02-04T09:49:53;102801.72;;;10.06;77.80
12636;BME280;6383;50.830;7.210;2023-02-04T09:52:21;102807.16;;;10.06;77.77
12636;BME280;6383;50.830;7.210;2023-02-04T09:54:51;102808.81;;;10.07;77.54
12636;BME280;6383;50.830;7.210;2023-02-04T09:57:20;102816.47;;;10.10;77.92
12636;BME280;6383;50.830;7.210;2023-02-04T09:59:50;102821.66;;;10.12;77.75
12636;BME280;6383;50.830;7.210;2023-02-04T10:02:23;102826.03;;;10.13;77.57
12636;BME280;6383;50.830;7.210;2023-02-04T10:04:55;102818.47;;;10.15;77.49
12636;BME280;6383;50.830;7.210;2023-02-04T10:07:25;102823.09;;;10.14;77.16
12636;BME280;6383;50.830;7.210;2023-02-04T10:09:54;102819.28;;;10.15;77.51
12636;BME280;6383;50.830;7.210;2023-02-04T10:12:23;102823.66;;;10.16;77.11
12636;BME280;6383;50.830;7.210;2023-02-04T10:14:54;102827.22;;;10.17;77.11
12636;BME280;6383;50.830;7.210;2023-02-04T10:17:23;102825.13;;;10.19;77.30
12636;BME280;6383;50.830;7.210;2023-02-04T10:19:50;102826.53;;;10.21;77.06
12636;BME280;6383;50.830;7.210;2023-02-04T10:22:21;102827.91;;;10.24;77.06
12636;BME280;6383;50.830;7.210;2023-02-04T10:24:48;102826.84;;;10.25;77.09
12636;BME280;6383;50.830;7.210;2023-02-04T10:27:18;102823.91;;;10.27;76.65
12636;BME280;6383;50.830;7.210;2023-02-04T10:29:54;102828.28;;;10.28;77.00
12636;BME280;6383;50.830;7.210;2023-02-04T10:32:26;102825.31;;;10.29;76.91
12636;BME280;6383;50.830;7.210;2023-02-04T10:34:58;102830.28;;;10.32;76.67
12636;BME280;6383;50.830;7.210;2023-02-04T10:37:28;102832.75;;;10.34;76.92
12636;BME280;6383;50.830;7.210;2023-02-04T10:39:58;102825.19;;;10.36;76.65
12636;BME280;6383;50.830;7.210;2023-02-04T10:42:28;102829.31;;;10.38;76.72
12636;BME280;6383;50.830;7.210;2023-02-04T10:44:57;102822.78;;;10.39;76.02
12636;BME280;6383;50.830;7.210;2023-02-04T10:47:27;102828.81;;;10.41;75.95
12636;BME280;6383;50.830;7.210;2023-02-04T10:49:59;102826.91;;;10.42;75.50
12636;BME280;6383;50.830;7.210;2023-02-04T10:52:34;102837.78;;;10.42;75.42
12636;BME280;6383;50.830;7.210;2023-02-04T10:55:06;102832.34;;;10.42;75.68
12636;BME280;6383;50.830;7.210;2023-02-04T10:57:37;102834.84;;;10.43;75.61
12636;BME280;6383;50.830;7.210;2023-02-04T11:00:15;102836.47;;;10.44;75.58
12636;BME280;6383;50.830;7.210;2023-02-04T11:02:48;102830.56;;;10.47;75.29
12636;BME280;6383;50.830;7.210;2023-02-04T11:05:19;102829.00;;;10.51;75.50
12636;BME280;6383;50.830;7.210;2023-02-04T11:07:50;102828.50;;;10.54;74.96
12636;BME280;6383;50.830;7.210;2023-02-04T11:10:20;102825.28;;;10.57;74.29
12636;BME280;6383;50.830;7.210;2023-02-04T11:13:00;102822.31;;;10.59;74.30
12636;BME280;6383;50.830;7.210;2023-02-04T11:15:42;102826.34;;;10.56;73.94
12636;BME280;6383;50.830;7.210;2023-02-04T11:18:25;102829.91;;;10.57;73.63
12636;BME280;6383;50.830;7.210;2023-02-04T11:20:56;102824.47;;;10.57;73.27
12636;BME280;6383;50.830;7.210;2023-02-04T11:23:35;102835.94;;;10.59;73.53
12636;BME280;6383;50.830;7.210;2023-02-04T11:26:10;102829.44;;;10.60;73.18
12636;BME280;6383;50.830;7.210;2023-02-04T11:28:46;102829.44;;;10.60;72.50
12636;BME280;6383;50.830;7.210;2023-02-04T11:31:38;102832.72;;;10.62;72.96
12636;BME280;6383;50.830;7.210;2023-02-04T11:34:23;102828.53;;;10.71;73.28
12636;BME280;6383;50.830;7.210;2023-02-04T11:37:10;102830.06;;;10.95;74.12
12636;BME280;6383;50.830;7.210;2023-02-04T11:39:44;102830.94;;;11.18;73.98
12636;BME280;6383;50.830;7.210;2023-02-04T11:42:20;102824.84;;;11.27;72.36
12636;BME280;6383;50.830;7.210;2023-02-04T11:44:52;102826.53;;;11.34;71.08
12636;BME280;6383;50.830;7.210;2023-02-04T11:47:23;102833.41;;;11.36;70.96
12636;BME280;6383;50.830;7.210;2023-02-04T11:49:55;102835.53;;;11.34;69.92
12636;BME280;6383;50.830;7.210;2023-02-04T11:52:25;102823.25;;;11.31;70.15
12636;BME280;6383;50.830;7.210;2023-02-04T11:54:57;102829.19;;;11.28;69.23
12636;BME280;6383;50.830;7.210;2023-02-04T11:57:27;102825.31;;;11.24;68.70
12636;BME280;6383;50.830;7.210;2023-02-04T11:59:58;102822.50;;;11.19;68.25
12636;BME280;6383;50.830;7.210;2023-02-04T12:02:40;102827.63;;;11.16;68.83
12636;BME280;6383;50.830;7.210;2023-02-04T12:05:11;102824.31;;;11.14;68.43
12636;BME280;6383;50.830;7.210;2023-02-04T12:07:39;102836.56;;;11.11;68.56
12636;BME280;6383;50.830;7.210;2023-02-04T12:10:14;102831.13;;;11.11;68.89
12636;BME280;6383;50.830;7.210;2023-02-04T12:12:51;102832.19;;;11.10;68.33
12636;BME280;6383;50.830;7.210;2023-02-04T12:15:23;102837.06;;;11.08;68.69
12636;BME280;6383;50.830;7.210;2023-02-04T12:18:03;102829.13;;;11.07;68.30
12636;BME280;6383;50.830;7.210;2023-02-04T12:20:31;102825.81;;;11.05;68.54
12636;BME280;6383;50.830;7.210;2023-02-04T12:23:00;102826.91;;;11.04;68.15
12636;BME280;6383;50.830;7.210;2023-02-04T12:25:30;102830.69;;;11.03;67.84
12636;BME280;6383;50.830;7.210;2023-02-04T12:27:59;102837.78;;;11.04;68.04
12636;BME280;6383;50.830;7.210;2023-02-04T12:30:26;102834.00;;;11.05;67.91
12636;BME280;6383;50.830;7.210;2023-02-04T12:32:55;102831.53;;;11.03;68.06
12636;BME280;6383;50.830;7.210;2023-02-04T12:35:23;102832.34;;;11.04;68.10
12636;BME280;6383;50.830;7.210;2023-02-04T12:37:51;102826.06;;;11.03;67.81
12636;BME280;6383;50.830;7.210;2023-02-04T12:40:20;102828.78;;;11.03;67.81
12636;BME280;6383;50.830;7.210;2023-02-04T12:42:50;102829.63;;;11.04;67.50
12636;BME280;6383;50.830;7.210;2023-02-04T12:45:20;102823.59;;;11.02;67.77
12636;BME280;6383;50.830;7.210;2023-02-04T12:47:49;102839.94;;;11.02;67.49
12636;BME280;6383;50.830;7.210;2023-02-04T12:50:18;102835.56;;;11.01;67.52
12636;BME280;6383;50.830;7.210;2023-02-04T12:52:52;102831.47;;;10.98;67.47
12636;BME280;6383;50.830;7.210;2023-02-04T12:55:21;102825.19;;;10.98;67.32
12636;BME280;6383;50.830;7.210;2023-02-04T12:57:52;102836.91;;;10.98;67.02
12636;BME280;6383;50.830;7.210;2023-02-04T13:00:22;102827.91;;;10.98;67.00
12636;BME280;6383;50.830;7.210;2023-02-04T13:02:53;102820.81;;;10.97;67.04
12636;BME280;6383;50.830;7.210;2023-02-04T13:05:22;102825.19;;;10.98;67.69
12636;BME280;6383;50.830;7.210;2023-02-04T13:07:51;102834.72;;;11.00;67.84
12636;BME280;6383;50.830;7.210;2023-02-04T13:10:20;102836.38;;;11.01;67.86
12636;BME280;6383;50.830;7.210;2023-02-04T13:12:49;102830.09;;;11.01;67.70
12636;BME280;6383;50.830;7.210;2023-02-04T13:15:18;102832.59;;;11.02;68.13
12636;BME280;6383;50.830;7.210;2023-02-04T13:17:46;102827.16;;;11.02;67.60